Time;durP1;ratioP1;P1;durP2;ratioP2;P2;SDS_P1;SDS_P2;PMS_P1;PMS_P2;Temp;Humidity;BMP_temperature;BMP_pressure;BME280_temperature;BME280_humidity;BME280_pressure;Samples;Min_cycle;Max_cycle;Signal;HPM_P1;HPM_P2
2021/12/04 10:00:06;;;;;;;9.18;6.40;;;;;;;-145.42;44.75;46200.91;4981351;28;20041;-42
2021/12/04 10:02:44;;;;;;;10.95;6.95;;;;;;;-145.42;44.72;46218.31;4981074;28;20069;-43
2021/12/04 10:05:39;;;;;;;8.68;6.63;;;;;;;-145.42;44.95;46200.91;4980488;28;20037;-47
2021/12/04 10:19:20;;;;;;;12.73;7.30;;;;;;;-145.42;45.16;46179.66;4980687;28;20453;-46
2021/12/04 10:22:07;;;;;;;11.27;8.60;;;;;;;-145.42;44.86;46210.56;4978963;28;20066;-44
2021/12/04 10:24:46;;;;;;;14.70;7.93;;;;;;;-145.42;45.24;46224.09;4980779;28;20121;-43
2021/12/04 10:33:16;;;;;;;12.00;7.63;;;;;;;-145.42;44.01;46247.31;4978771;28;20045;-40
2021/12/04 10:35:44;;;;;;;13.50;8.50;;;;;;;-145.42;44.28;46216.38;4979655;28;20142;-45
2021/12/04 10:38:17;;;;;;;14.70;8.50;;;;;;;-145.42;44.03;46210.56;4979656;28;20035;-41
2021/12/04 10:40:46;;;;;;;13.43;7.95;;;;;;;-145.42;44.36;46181.56;4981681;28;20038;-38
2021/12/04 10:43:22;;;;;;;11.88;7.90;;;;;;;-145.42;44.32;46191.25;4980904;28;20097;-39
2021/12/04 10:45:53;;;;;;;11.32;8.35;;;;;;;-145.42;44.20;46208.66;4979657;28;20145;-41
2021/12/04 10:48:24;;;;;;;12.60;8.38;;;;;;;-145.42;43.87;46218.31;4980513;28;20052;-40
2021/12/04 10:51:01;;;;;;;14.55;7.95;;;;;;;-145.42;44.34;46220.25;4981204;28;20050;-41
2021/12/04 10:53:45;;;;;;;14.68;8.77;;;;;;;-145.42;44.34;46229.91;4979913;28;20048;-38
2021/12/04 10:56:24;;;;;;;12.98;8.30;;;;;;;-145.42;44.16;46183.50;4972137;28;20042;-40
2021/12/04 11:04:32;;;;;;;13.63;8.82;;;;;;;-145.42;44.12;46206.72;4964282;28;20402;-38
2021/12/04 11:27:10;;;;;;;14.25;7.95;;;;;;;-145.42;44.43;46193.19;4982272;28;20042;-40
2021/12/04 11:36:02;;;;;;;12.13;7.60;;;;;;;-145.42;44.48;46187.38;4964751;28;20046;-40
2021/12/04 11:38:16;;;;;;;10.57;7.30;;;;;;;-145.42;44.41;46198.97;4963554;28;20141;-40
2021/12/04 11:43:18;;;;;;;11.23;7.82;;;;;;;-145.42;44.68;46200.91;4966226;28;20047;-40
2021/12/04 11:48:32;;;;;;;12.93;6.95;;;;;;;-145.42;44.50;46195.09;4965443;28;20419;-35
2021/12/04 11:50:58;;;;;;;9.90;7.30;;;;;;;-145.42;44.66;46198.97;4966306;28;20039;-42
2021/12/04 11:53:25;;;;;;;9.43;6.47;;;;;;;-145.42;44.73;46208.66;4962080;28;20114;-44
2021/12/04 11:55:52;;;;;;;9.38;6.68;;;;;;;-145.42;44.85;46235.72;4963686;28;20054;-43
2021/12/04 11:58:40;;;;;;;9.93;6.60;;;;;;;-145.42;44.72;46177.72;4963927;28;20030;-44
2021/12/04 12:01:19;;;;;;;9.98;6.75;;;;;;;-145.42;44.70;46187.38;4964187;28;20034;-42
2021/12/04 12:03:54;;;;;;;9.85;6.20;;;;;;;-145.42;44.68;46168.03;4965279;28;20727;-40
2021/12/04 12:06:38;;;;;;;10.68;6.57;;;;;;;-145.42;44.48;46212.50;4963053;28;20117;-39
2021/12/04 12:09:12;;;;;;;9.25;5.90;;;;;;;-145.42;44.64;46218.31;4960264;28;20097;-39
2021/12/04 12:11:51;;;;;;;10.05;6.10;;;;;;;-145.42;44.69;46227.97;4966007;28;20121;-43
2021/12/04 12:14:21;;;;;;;11.35;6.13;;;;;;;-145.42;44.66;46226.03;4965784;28;20411;-42
2021/12/04 12:16:50;;;;;;;9.32;6.40;;;;;;;-145.42;44.74;46212.50;4961092;28;20037;-43
2021/12/04 12:19:26;;;;;;;9.15;5.90;;;;;;;-145.42;44.62;46175.78;4958623;28;20094;-42
2021/12/04 12:21:59;;;;;;;8.88;5.63;;;;;;;-145.42;44.37;46191.25;4960328;28;20524;-38
2021/12/04 12:24:52;;;;;;;10.77;6.10;;;;;;;-145.42;44.57;46202.84;4958257;28;20162;-42
2021/12/04 12:33:31;;;;;;;9.50;5.80;;;;;;;-145.42;44.53;46218.31;4964197;28;20065;-41
2021/12/04 12:36:09;;;;;;;9.40;5.13;;;;;;;-145.42;44.57;46253.09;4965945;28;20489;-40
2021/12/04 12:38:53;;;;;;;8.88;4.78;;;;;;;-145.42;44.62;46179.66;4964264;28;20046;-38
2021/12/04 12:41:44;;;;;;;9.85;5.57;;;;;;;-145.42;44.67;46181.56;4962239;28;20121;-42
2021/12/04 12:44:24;;;;;;;8.38;4.72;;;;;;;-145.42;44.59;46218.31;4963098;28;20051;-39
2021/12/04 12:46:58;;;;;;;10.52;5.00;;;;;;;-145.42;44.75;46229.91;4962861;28;20051;-40
2021/12/04 12:49:34;;;;;;;9.75;5.35;;;;;;;-145.42;44.69;46214.44;4960612;28;20728;-40
2021/12/04 12:52:08;;;;;;;6.60;4.90;;;;;;;-145.42;44.87;46216.38;4958588;28;20038;-39
2021/12/04 12:54:52;;;;;;;7.18;4.72;;;;;;;-145.42;44.83;46216.38;4962053;28;20126;-38
2021/12/04 12:57:27;;;;;;;10.38;5.28;;;;;;;-145.42;44.81;46216.38;4956384;28;20066;-41
2021/12/04 13:13:55;;;;;;;10.70;4.88;;;;;;;-145.42;45.57;46187.38;4962177;28;20186;-40
2021/12/04 13:16:31;;;;;;;7.25;4.90;;;;;;;-145.42;45.50;46175.78;4956652;28;20121;-40
2021/12/04 13:19:05;;;;;;;8.77;5.22;;;;;;;-145.42;45.25;46185.44;4962563;28;20564;-38
2021/12/04 13:21:38;;;;;;;9.33;5.53;;;;;;;-145.42;45.29;46191.25;4957194;28;20682;-38
2021/12/04 13:24:04;;;;;;;10.23;5.30;;;;;;;-145.42;45.33;46204.78;4961691;28;20513;-38
2021/12/04 13:26:39;;;;;;;9.60;5.63;;;;;;;-145.42;45.21;46231.84;4958839;28;20731;-40
2021/12/04 13:29:07;;;;;;;10.38;5.07;;;;;;;-145.42;45.24;46206.72;4960914;28;20050;-36
2021/12/04 13:31:37;;;;;;;10.05;5.18;;;;;;;-145.42;45.34;46185.44;4960499;28;20125;-39
2021/12/04 13:34:04;;;;;;;6.30;4.93;;;;;;;-145.42;45.25;46193.19;4964834;28;20577;-40
2021/12/04 13:36:31;;;;;;;11.77;5.75;;;;;;;-145.42;45.36;46224.09;4960834;28;20141;-39
2021/12/04 13:39:01;;;;;;;7.97;5.63;;;;;;;-145.42;45.34;46210.56;4964277;28;20042;-40
2021/12/04 13:41:29;;;;;;;9.60;5.60;;;;;;;-145.42;45.27;46241.50;4964563;28;20379;-39
2021/12/04 13:43:57;;;;;;;8.20;5.20;;;;;;;-145.42;45.31;46208.66;4963145;28;20134;-38
2021/12/04 13:46:24;;;;;;;11.20;5.07;;;;;;;-145.42;45.15;46224.09;4961552;28;20081;-37
2021/12/04 13:48:51;;;;;;;7.95;4.85;;;;;;;-145.42;45.09;46239.56;4959758;28;20477;-39
2021/12/04 13:51:17;;;;;;;8.85;5.78;;;;;;;-145.42;45.06;46247.31;4959836;28;20050;-38
2021/12/04 13:53:46;;;;;;;10.13;5.80;;;;;;;-145.42;44.80;46220.25;4961375;28;20258;-37
2021/12/04 13:56:17;;;;;;;9.40;5.38;;;;;;;-145.42;44.86;46200.91;4957737;28;20043;-38
2021/12/04 13:58:57;;;;;;;8.30;5.68;;;;;;;-145.42;44.91;46171.91;4959313;28;20170;-36
2021/12/04 14:01:24;;;;;;;7.45;4.75;;;;;;;-145.42;44.99;46216.38;4961619;28;20045;-39
2021/12/04 14:03:57;;;;;;;10.02;5.45;;;;;;;-145.42;45.01;46200.91;4961482;28;20035;-38
2021/12/04 14:06:23;;;;;;;11.60;5.40;;;;;;;-145.42;45.22;46251.19;4963517;28;20129;-38
2021/12/04 14:09:16;;;;;;;9.48;5.50;;;;;;;-145.42;45.04;46220.25;4964161;28;20644;-37
2021/12/04 14:11:42;;;;;;;7.72;5.40;;;;;;;-145.42;45.06;46210.56;4963565;28;20410;-37
2021/12/04 14:14:14;;;;;;;7.72;5.07;;;;;;;-145.42;45.13;46229.91;4964834;28;20039;-38
2021/12/04 14:16:42;;;;;;;9.13;5.30;;;;;;;-145.42;45.13;46216.38;4964367;28;20138;-39
2021/12/04 14:19:20;;;;;;;8.43;4.97;;;;;;;-145.42;45.22;46227.97;4964830;28;20142;-38
2021/12/04 14:22:14;;;;;;;8.07;5.45;;;;;;;-145.42;45.29;46171.91;4964626;28;20074;-38
2021/12/04 14:24:56;;;;;;;12.50;5.38;;;;;;;-145.42;45.31;46239.56;4962893;28;20098;-37
2021/12/04 14:27:24;;;;;;;7.93;5.13;;;;;;;-145.42;45.40;46200.91;4960171;28;20507;-38
2021/12/04 14:29:54;;;;;;;10.10;5.50;;;;;;;-145.42;45.43;46212.50;4962611;28;20110;-38
2021/12/04 14:32:26;;;;;;;10.43;5.50;;;;;;;-145.42;45.50;46200.91;4965330;28;21631;-38
2021/12/04 14:34:58;;;;;;;7.10;5.07;;;;;;;-145.42;45.54;46206.72;4967218;28;20095;-37
2021/12/04 14:37:24;;;;;;;9.38;5.03;;;;;;;-145.42;45.41;46235.72;4962811;28;20454;-39
2021/12/04 14:39:51;;;;;;;9.60;5.22;;;;;;;-145.42;45.38;46212.50;4962991;28;20081;-38
2021/12/04 14:42:21;;;;;;;7.85;5.28;;;;;;;-145.42;45.66;46210.56;4968276;28;20035;-38
2021/12/04 14:44:51;;;;;;;9.55;5.10;;;;;;;-145.42;45.45;46220.25;4967073;28;20047;-40
2021/12/04 14:47:19;;;;;;;7.82;4.80;;;;;;;-145.42;45.50;46241.50;4968139;28;20042;-39
2021/12/04 14:49:46;;;;;;;10.98;5.88;;;;;;;-145.42;45.43;46222.19;4967595;28;20130;-38
2021/12/04 14:52:24;;;;;;;8.07;5.45;;;;;;;-145.42;45.52;46233.78;4968145;28;20066;-37
2021/12/04 14:54:51;;;;;;;8.88;5.13;;;;;;;-145.42;45.57;46235.72;4968226;28;20042;-38
2021/12/04 14:57:20;;;;;;;6.50;4.65;;;;;;;-145.42;45.41;46198.97;4965452;28;20063;-38
2021/12/04 14:59:47;;;;;;;7.30;4.72;;;;;;;-145.42;45.49;46216.38;4967235;28;20134;-38
2021/12/04 15:02:20;;;;;;;8.50;5.13;;;;;;;-145.42;45.53;46233.78;4964695;28;20409;-38
2021/12/04 15:04:46;;;;;;;8.32;5.18;;;;;;;-145.42;45.37;46216.38;4967189;28;20038;-39
2021/12/04 15:07:25;;;;;;;8.30;5.00;;;;;;;-145.42;45.45;46229.91;4967473;28;20429;-40
2021/12/04 15:09:51;;;;;;;7.88;4.95;;;;;;;-145.42;45.38;46197.03;4967245;28;20121;-39
2021/12/04 15:12:31;;;;;;;8.30;4.90;;;;;;;-145.42;45.31;46198.97;4966859;28;20109;-40
2021/12/04 15:15:02;;;;;;;10.00;5.10;;;;;;;-145.42;45.31;46193.19;4967090;28;20043;-36
2021/12/04 15:17:29;;;;;;;11.15;5.55;;;;;;;-145.42;45.31;46214.44;4967309;28;20049;-42
2021/12/04 15:20:02;;;;;;;9.23;5.03;;;;;;;-145.42;45.37;46195.09;4959563;28;20126;-38
2021/12/04 15:22:35;;;;;;;8.13;5.28;;;;;;;-145.42;45.34;46198.97;4965442;28;20126;-40
2021/12/04 15:25:04;;;;;;;9.93;4.88;;;;;;;-145.42;45.24;46220.25;4967281;28;20047;-41
2021/12/04 15:27:30;;;;;;;10.57;5.28;;;;;;;-145.42;45.36;46212.50;4962940;28;20050;-40
2021/12/04 15:29:59;;;;;;;16.48;6.10;;;;;;;-145.42;45.24;46187.38;4966733;28;20138;-39
2021/12/04 15:32:26;;;;;;;7.65;5.03;;;;;;;-145.42;45.34;46195.09;4966940;28;20069;-40
2021/12/04 15:35:05;;;;;;;8.95;5.35;;;;;;;-145.42;45.36;46189.31;4966937;28;20042;-41
2021/12/04 15:37:48;;;;;;;11.80;5.93;;;;;;;-145.42;45.29;46258.91;4966930;28;20047;-41
2021/12/04 15:40:53;;;;;;;7.85;5.25;;;;;;;-145.42;45.31;46210.56;4958225;28;20662;-40
2021/12/04 15:43:29;;;;;;;11.65;5.38;;;;;;;-145.42;45.47;46224.09;4964904;28;20057;-42
2021/12/04 15:46:12;;;;;;;7.78;5.10;;;;;;;-145.42;45.48;46241.50;4964930;28;20745;-39
2021/12/04 15:54:28;;;;;;;8.13;5.20;;;;;;;-145.42;45.53;46198.97;4965628;28;20096;-39
2021/12/04 15:56:55;;;;;;;8.88;5.10;;;;;;;-145.42;45.45;46241.50;4966463;28;20035;-39
2021/12/04 15:59:30;;;;;;;10.15;5.20;;;;;;;-145.42;45.33;46224.09;4960912;28;20046;-42
2021/12/04 16:02:08;;;;;;;10.48;5.70;;;;;;;-145.42;45.57;46235.72;4964095;28;20511;-38
2021/12/04 16:04:34;;;;;;;10.05;5.13;;;;;;;-145.42;45.50;46218.31;4959016;28;20616;-40
2021/12/04 16:07:02;;;;;;;9.82;4.47;;;;;;;-145.42;45.64;46251.19;4957403;28;20043;-38
2021/12/04 16:09:32;;;;;;;9.43;4.97;;;;;;;-145.42;45.64;46216.38;4960441;28;20138;-40
2021/12/04 16:12:20;;;;;;;9.77;5.40;;;;;;;-145.42;45.61;46233.78;4961765;28;20133;-42
2021/12/04 16:14:52;;;;;;;6.95;4.93;;;;;;;-145.42;45.64;46202.84;4960014;28;20568;-36
2021/12/04 16:17:18;;;;;;;10.60;5.07;;;;;;;-145.42;45.77;46231.84;4960216;28;20133;-37
2021/12/04 16:19:45;;;;;;;7.03;4.57;;;;;;;-145.42;45.83;46239.56;4959835;28;20038;-38
2021/12/04 16:22:13;;;;;;;7.80;5.10;;;;;;;-145.42;45.77;46237.66;4964276;28;20039;-40
2021/12/04 16:24:42;;;;;;;8.82;5.30;;;;;;;-145.42;45.83;46237.66;4966131;28;20038;-39
2021/12/04 16:27:17;;;;;;;7.78;4.95;;;;;;;-145.42;45.83;46249.25;4966037;28;20525;-37
2021/12/04 16:29:55;;;;;;;12.82;5.15;;;;;;;-145.42;45.87;46227.97;4965418;28;20605;-39
2021/12/04 16:37:45;;;;;;;8.07;4.38;;;;;;;-145.42;45.84;46164.19;4965636;28;20140;-34
2021/12/04 16:40:29;;;;;;;8.35;4.80;;;;;;;-145.42;45.87;46177.72;4965788;28;20105;-38
2021/12/04 16:43:01;;;;;;;7.88;4.72;;;;;;;-145.42;45.78;46210.56;4965692;28;20039;-38
2021/12/04 16:45:29;;;;;;;6.50;4.32;;;;;;;-145.42;45.92;46239.56;4964722;28;20055;-40
2021/12/04 16:47:55;;;;;;;5.35;3.95;;;;;;;-145.42;45.87;46214.44;4965334;28;20498;-37
2021/12/04 16:50:25;;;;;;;7.57;4.78;;;;;;;-145.42;45.93;46226.03;4965813;28;20053;-36
2021/12/04 16:55:47;;;;;;;8.98;4.68;;;;;;;-145.42;45.94;46195.09;4964957;28;20037;-42
2021/12/04 16:58:13;;;;;;;7.18;4.57;;;;;;;-145.42;45.95;46193.19;4962964;28;20035;-42
2021/12/04 17:00:43;;;;;;;8.38;5.13;;;;;;;-145.42;46.03;46226.03;4965303;28;20094;-41
2021/12/04 17:03:10;;;;;;;6.70;4.13;;;;;;;-145.42;45.99;46198.97;4965639;28;20204;-35
2021/12/04 17:05:36;;;;;;;10.10;4.60;;;;;;;-145.42;45.88;46224.09;4961720;28;20298;-38
2021/12/04 17:08:03;;;;;;;7.25;4.47;;;;;;;-145.42;46.03;46214.44;4964760;28;20125;-33
2021/12/04 17:10:29;;;;;;;6.22;4.00;;;;;;;-145.42;46.11;46218.31;4965012;28;20074;-31
2021/12/04 17:12:55;;;;;;;6.85;4.57;;;;;;;-145.42;46.14;46216.38;4965207;28;20069;-40
2021/12/04 17:15:21;;;;;;;5.18;4.03;;;;;;;-145.42;46.18;46214.44;4964826;28;20047;-41
2021/12/04 17:17:47;;;;;;;8.38;4.97;;;;;;;-145.42;46.08;46249.25;4965259;28;20038;-40
2021/12/04 17:20:18;;;;;;;7.40;4.13;;;;;;;-145.42;45.98;46226.03;4964676;28;20046;-39
2021/12/04 17:22:44;;;;;;;8.10;4.57;;;;;;;-145.42;45.87;46200.91;4965144;28;20105;-38
2021/12/04 17:25:11;;;;;;;6.82;4.38;;;;;;;-145.42;45.83;46218.31;4964449;28;20043;-38
2021/12/04 17:27:37;;;;;;;6.95;4.10;;;;;;;-145.42;45.95;46206.72;4963730;28;20053;-35
2021/12/04 17:30:07;;;;;;;7.45;4.40;;;;;;;-145.42;45.92;46195.09;4962995;28;20043;-39
2021/12/04 17:32:34;;;;;;;8.98;5.03;;;;;;;-145.42;45.97;46227.97;4959423;28;20050;-41
2021/12/04 17:35:01;;;;;;;6.68;4.20;;;;;;;-145.42;46.10;46216.38;4957068;28;20047;-40
2021/12/04 17:37:29;;;;;;;6.07;4.25;;;;;;;-145.42;46.07;46200.91;4962571;28;20129;-37
2021/12/04 17:39:56;;;;;;;6.10;4.38;;;;;;;-145.42;46.01;46212.50;4962985;28;20046;-39
2021/12/04 17:42:25;;;;;;;6.70;3.95;;;;;;;-145.42;46.01;46214.44;4962688;28;20555;-38
2021/12/04 17:44:52;;;;;;;5.55;4.05;;;;;;;-145.42;46.01;46210.56;4962489;28;20058;-39
2021/12/04 17:47:20;;;;;;;6.03;4.30;;;;;;;-145.42;46.19;46220.25;4963133;28;20047;-40
2021/12/04 17:49:47;;;;;;;6.63;4.03;;;;;;;-145.42;46.16;46210.56;4964008;28;20194;-38
2021/12/04 17:52:13;;;;;;;7.30;3.60;;;;;;;-145.42;46.16;46237.66;4963565;28;20121;-39
2021/12/04 17:54:39;;;;;;;6.47;3.80;;;;;;;-145.42;46.10;46231.84;4962188;28;20042;-36
2021/12/04 17:57:05;;;;;;;6.47;4.25;;;;;;;-145.42;46.10;46253.09;4964633;28;20039;-39
2021/12/04 17:59:31;;;;;;;5.18;4.00;;;;;;;-145.42;45.96;46212.50;4964313;28;20126;-39
2021/12/04 18:02:01;;;;;;;6.10;3.72;;;;;;;-145.42;45.84;46214.44;4964320;28;20062;-40
2021/12/04 18:04:30;;;;;;;5.65;3.85;;;;;;;-145.42;46.03;46239.56;4963648;28;20043;-39
2021/12/04 18:07:00;;;;;;;7.60;4.72;;;;;;;-145.42;46.12;46247.31;4967007;28;20090;-36
2021/12/04 18:09:30;;;;;;;6.57;3.85;;;;;;;-145.42;46.22;46185.44;4967872;28;20496;-43
2021/12/04 18:12:01;;;;;;;6.30;3.65;;;;;;;-145.42;45.96;46239.56;4966119;28;20129;-39
2021/12/04 18:14:28;;;;;;;6.93;4.10;;;;;;;-145.42;45.94;46204.78;4968228;28;20133;-39
2021/12/04 18:16:55;;;;;;;7.65;3.22;;;;;;;-145.42;46.05;46224.09;4967170;28;20105;-43
2021/12/04 18:19:25;;;;;;;5.70;3.30;;;;;;;-145.42;46.08;46210.56;4966020;28;20070;-37
2021/12/04 18:21:52;;;;;;;4.63;3.88;;;;;;;-145.42;46.15;46193.19;4967480;28;20089;-39
2021/12/04 18:24:19;;;;;;;4.80;3.83;;;;;;;-145.42;46.03;46226.03;4966500;28;20031;-40
2021/12/04 18:26:46;;;;;;;7.38;3.88;;;;;;;-145.42;46.14;46241.50;4966811;28;20043;-41
2021/12/04 18:29:12;;;;;;;5.88;3.35;;;;;;;-145.42;46.12;46212.50;4967543;28;20142;-42
2021/12/04 18:31:40;;;;;;;5.47;3.75;;;;;;;-145.42;46.24;46197.03;4968256;28;20485;-36
2021/12/04 18:34:06;;;;;;;3.63;2.97;;;;;;;-145.42;46.14;46214.44;4967865;28;20097;-38
2021/12/04 18:36:35;;;;;;;4.70;3.55;;;;;;;-145.42;46.13;46183.50;4966768;28;20503;-38
2021/12/04 18:39:04;;;;;;;5.22;3.60;;;;;;;-145.42;46.13;46212.50;4967851;28;20049;-36
2021/12/04 18:41:29;;;;;;;5.55;3.17;;;;;;;-145.42;46.17;46229.91;4967573;28;20146;-39
2021/12/04 18:43:56;;;;;;;6.57;3.88;;;;;;;-145.42;46.20;46189.31;4967087;28;20121;-37
2021/12/04 18:46:24;;;;;;;4.90;3.63;;;;;;;-145.42;46.25;46231.84;4967792;28;20438;-39
2021/12/04 18:48:50;;;;;;;7.57;3.22;;;;;;;-145.42;46.17;46231.84;4967619;28;20113;-37
2021/12/04 18:51:16;;;;;;;4.80;3.03;;;;;;;-145.42;46.10;46212.50;4966795;28;20129;-42
2021/12/04 18:53:43;;;;;;;3.50;3.03;;;;;;;-145.42;46.23;46214.44;4967410;28;20113;-40
2021/12/04 18:56:10;;;;;;;3.80;3.17;;;;;;;-145.42;46.13;46206.72;4964137;28;20049;-39
2021/12/04 18:58:39;;;;;;;5.65;3.53;;;;;;;-145.42;46.09;46208.66;4966635;28;20628;-40
2021/12/04 19:01:06;;;;;;;8.27;3.75;;;;;;;-145.42;46.29;46226.03;4965879;28;20058;-41
2021/12/04 19:03:32;;;;;;;5.35;3.08;;;;;;;-145.42;46.22;46241.50;4968016;28;20042;-39
2021/12/04 19:05:58;;;;;;;3.80;3.00;;;;;;;-145.42;46.29;46193.19;4966476;28;20034;-39
2021/12/04 19:08:24;;;;;;;3.72;3.05;;;;;;;-145.42;46.32;46191.25;4965895;28;20470;-38
2021/12/04 19:10:50;;;;;;;5.47;3.63;;;;;;;-145.42;46.30;46210.56;4961072;28;20113;-37
2021/12/04 19:13:16;;;;;;;4.30;3.15;;;;;;;-145.42;46.44;46208.66;4967004;28;20047;-38
2021/12/04 19:15:44;;;;;;;4.70;3.40;;;;;;;-145.42;46.48;46255.03;4964870;28;20045;-39
2021/12/04 19:18:11;;;;;;;4.97;3.28;;;;;;;-145.42;46.55;46200.91;4965102;28;20129;-35
2021/12/04 19:20:42;;;;;;;4.15;3.10;;;;;;;-145.42;46.63;46206.72;4966239;28;20043;-40
2021/12/04 19:23:08;;;;;;;6.80;3.42;;;;;;;-145.42;46.56;46233.78;4967254;28;20042;-41
2021/12/04 19:25:34;;;;;;;6.10;3.00;;;;;;;-145.42;46.69;46231.84;4967453;28;20031;-41
2021/12/04 19:28:01;;;;;;;4.47;3.30;;;;;;;-145.42;46.69;46198.97;4961716;28;20075;-38
2021/12/04 19:30:32;;;;;;;5.97;3.53;;;;;;;-145.42;46.78;46198.97;4941360;28;20043;-37
2021/12/04 19:33:12;;;;;;;6.47;3.65;;;;;;;-145.42;46.85;46212.50;4942771;28;20529;-36
2021/12/04 19:52:10;;;;;;;6.50;3.38;;;;;;;-145.42;46.82;46216.38;4944036;28;20194;-36
2021/12/04 19:54:46;;;;;;;4.53;2.60;;;;;;;-145.42;46.80;46220.25;4944678;28;20106;-40
2021/12/04 19:57:18;;;;;;;;;;;;;;;-145.42;46.92;46202.84;4946447;28;20067;-41
2021/12/04 19:59:44;;;;;;;4.93;2.60;;;;;;;-145.42;46.99;46216.38;4942635;28;19980;-38
2021/12/04 20:02:35;;;;;;;4.80;3.15;;;;;;;-145.42;47.08;46227.97;4942350;28;20584;-39
2021/12/04 20:05:28;;;;;;;4.22;2.78;;;;;;;-145.42;47.10;46208.66;4941702;28;20487;-37
2021/12/04 20:15:44;;;;;;;5.53;3.00;;;;;;;-145.42;47.39;46210.56;4942859;28;20541;-39
2021/12/04 20:18:13;;;;;;;4.75;3.05;;;;;;;-145.42;47.30;46224.09;4943453;28;20047;-41
2021/12/04 20:20:43;;;;;;;4.07;3.25;;;;;;;-145.42;47.35;46235.72;4940590;28;20151;-35
2021/12/04 20:23:11;;;;;;;4.57;2.83;;;;;;;-145.42;47.46;46233.78;4941873;28;20106;-42
2021/12/04 20:25:43;;;;;;;3.53;2.70;;;;;;;-145.42;47.48;46249.25;4942600;28;20745;-38
2021/12/04 20:28:13;;;;;;;3.88;3.03;;;;;;;-145.42;47.54;46191.25;4941641;28;20046;-39
2021/12/04 20:30:58;;;;;;;4.95;3.00;;;;;;;-145.42;47.57;46241.50;4940156;28;20043;-41
2021/12/04 20:33:32;;;;;;;3.70;2.90;;;;;;;-145.42;47.66;46235.72;4940169;28;20054;-36
2021/12/04 20:36:50;;;;;;;6.03;4.10;;;;;;;-145.42;47.63;46229.91;4943400;28;20058;-41
2021/12/04 20:39:54;;;;;;;6.55;3.22;;;;;;;-145.42;47.59;46189.31;4940538;28;20067;-43
2021/12/04 21:06:25;;;;;;;3.72;3.13;;;;;;;-145.42;48.04;46237.66;4940100;28;20062;-40
2021/12/04 21:11:41;;;;;;;7.43;3.08;;;;;;;-145.42;48.09;46191.25;4939818;28;20743;-39
2021/12/04 21:26:34;;;;;;;5.10;3.17;;;;;;;-145.42;48.17;46208.66;4940432;28;20039;-38
2021/12/04 21:49:55;;;;;;;71.72;33.83;;;;;;;-145.42;48.36;46195.09;4943710;28;20050;-38
2021/12/04 21:52:21;;;;;;;84.85;39.03;;;;;;;-145.42;48.43;46204.78;4943030;28;20562;-39
2021/12/04 21:54:48;;;;;;;89.40;40.67;;;;;;;-145.42;48.26;46214.44;4944112;28;20166;-42
2021/12/04 21:57:30;;;;;;;89.03;38.95;;;;;;;-145.42;48.36;46197.03;4940512;28;20043;-36
2021/12/04 22:11:05;;;;;;;83.07;35.95;;;;;;;-145.42;48.51;46249.25;4940998;28;20051;-40
2021/12/04 22:14:29;;;;;;;82.53;35.80;;;;;;;-145.42;48.43;46255.03;4938592;28;20118;-43
2021/12/04 22:24:33;;;;;;;71.40;33.47;;;;;;;-145.42;48.34;46208.66;4938820;28;20039;-42
2021/12/04 22:58:02;;;;;;;49.13;21.92;;;;;;;-145.42;47.41;46208.66;4937532;28;20101;-40
2021/12/04 22:59:54;;;;;;;40.47;20.77;;;;;;;-145.42;47.41;46206.72;4941200;28;20039;-39
2021/12/04 23:02:24;;;;;;;41.03;20.13;;;;;;;-145.42;47.45;46214.44;4940021;28;20118;-34
2021/12/04 23:13:14;;;;;;;34.47;18.88;;;;;;;-145.42;47.24;46227.97;4940529;28;20170;-36
2021/12/04 23:16:02;;;;;;;37.58;18.05;;;;;;;-145.42;47.28;46208.66;4939987;28;20412;-38
2021/12/04 23:18:48;;;;;;;36.60;17.13;;;;;;;-145.42;47.19;46212.50;4941941;28;20044;-38
2021/12/04 23:35:00;;;;;;;27.58;14.90;;;;;;;-145.42;47.10;46229.91;4941470;28;20440;-42
2021/12/04 23:48:17;;;;;;;23.80;13.15;;;;;;;-145.42;47.07;46193.19;4941770;28;20540;-37
